This is the latest recevied weather packets stored in our database for station/object KO4ILY. If no packets are shown the sender has not sent any weather packets the latest 10 day(s).
| Time | Temp. | Humidity | Pressure | Rain* | Wind** | Luminosity | Snow |
|---|---|---|---|---|---|---|---|
| 1777456805 | 15.56° C | 96% | 1012.6 hPa | 0 mm | - | - | - |
| 1777453206 | 16.67° C | 94% | 1012.8 hPa | 0.76 mm | - | - | - |
| 1777449606 | 16.67° C | 93% | 1014.7 hPa | 10.92 mm | - | - | - |
| 1777446006 | 17.22° C | 91% | 1015.2 hPa | 10.16 mm | - | - | - |
| 1777442405 | 17.22° C | 89% | 1015.8 hPa | 3.3 mm | - | - | - |
| 1777438805 | 17.78° C | 87% | 1014.5 hPa | 0 mm | - | - | - |
| 1777435206 | 18.33° C | 86% | 1014.8 hPa | 0 mm | - | - | - |
| 1777431605 | 18.89° C | 84% | 1014.5 hPa | 0 mm | - | - | - |
| 1777428005 | 19.44° C | 81% | 1017.2 hPa | 0 mm | - | - | - |
| 1777424406 | 20° C | 79% | 1017.8 hPa | 0 mm | - | - | - |
| 1777420806 | 20° C | 80% | 1017.2 hPa | 0 mm | - | - | - |
| 1777417205 | 20.56° C | 79% | 1016.1 hPa | 0 mm | - | - | - |
| 1777413605 | 21.67° C | 76% | 1015.7 hPa | 0 mm | - | - | - |
| 1777410006 | 22.22° C | 75% | 1015.7 hPa | 0 mm | - | - | - |
| 1777406405 | 22.78° C | 74% | 1017.3 hPa | 0 mm | - | - | - |
| 1777402806 | 22.22° C | 75% | 1017.7 hPa | 0 mm | - | - | - |
| 1777399206 | 21.67° C | 81% | 1018.4 hPa | 0 mm | - | - | - |
| 1777395605 | 21.11° C | 84% | 1018.8 hPa | 0 mm | - | - | - |
| 1777392006 | 18.89° C | 90% | 1019.8 hPa | 0 mm | - | - | - |
| 1777388405 | 16.67° C | 95% | 1019.7 hPa | 0 mm | - | - | - |
| 1777384806 | 15.56° C | 94% | 1020.3 hPa | 4.32 mm | - | - | - |
| 1777381205 | 15° C | 96% | 1021.4 hPa | 3.56 mm | - | - | - |
| 1777377605 | 15° C | 94% | 1021.5 hPa | 1.52 mm | - | - | - |
| 1777374005 | 15° C | 95% | 1019.7 hPa | 8.38 mm | - | - | - |
| 1777370406 | 15° C | 92% | 1020.6 hPa | 2.79 mm | - | - | - |
* Rain latest hour (hover to see other rain measurements)
** Current wind speed in m/s (hover to see current wind gust speed)